createdAt,value
2023-03-04T00:00:28.960Z,7.85
2023-03-04T00:01:32.198Z,7.90
2023-03-04T00:02:34.454Z,8.05
2023-03-04T00:03:39.151Z,7.96
2023-03-04T00:04:41.690Z,7.96
2023-03-04T00:05:45.163Z,7.86
2023-03-04T00:06:48.570Z,7.83
2023-03-04T00:07:51.920Z,8.02
2023-03-04T00:08:54.340Z,8.14
2023-03-04T00:09:58.117Z,8.15
2023-03-04T00:11:00.418Z,7.99
2023-03-04T00:12:03.797Z,8.13
2023-03-04T00:13:06.098Z,8.18
2023-03-04T00:14:09.462Z,8.17
2023-03-04T00:15:11.993Z,7.92
2023-03-04T00:16:15.587Z,7.99
2023-03-04T00:17:17.831Z,7.97
2023-03-04T00:18:21.641Z,7.94
2023-03-04T00:19:25.356Z,8.13
2023-03-04T00:20:28.772Z,7.96
2023-03-04T00:21:31.275Z,7.89
2023-03-04T00:22:34.737Z,7.82
2023-03-04T00:23:37.187Z,7.97
2023-03-04T00:24:40.507Z,7.82
2023-03-04T00:25:43.690Z,7.79
2023-03-04T00:26:47.468Z,7.96
2023-03-04T00:27:49.863Z,7.91
2023-03-04T00:28:53.329Z,7.96
2023-03-04T00:29:56.258Z,7.90
2023-03-04T00:30:59.662Z,7.92
2023-03-04T00:32:02.198Z,7.87
2023-03-04T00:33:05.930Z,7.95
2023-03-04T00:34:08.672Z,7.79
2023-03-04T00:35:14.217Z,7.94
2023-03-04T00:36:16.621Z,7.81
2023-03-04T00:37:20.200Z,7.89
2023-03-04T00:38:22.548Z,7.85
2023-03-04T00:39:26.071Z,7.80
2023-03-04T00:40:28.485Z,7.85
2023-03-04T00:41:31.940Z,7.98
2023-03-04T00:42:35.965Z,7.99
2023-03-04T00:43:38.264Z,8.03
2023-03-04T00:44:42.228Z,7.90
2023-03-04T00:45:44.550Z,7.96
2023-03-04T00:46:47.882Z,7.97
2023-03-04T00:47:50.177Z,7.80
2023-03-04T00:48:53.571Z,7.89
2023-03-04T00:49:55.796Z,7.86
2023-03-04T00:51:00.440Z,8.05
2023-03-04T00:52:02.766Z,8.02
2023-03-04T00:53:06.765Z,7.98
2023-03-04T00:54:09.934Z,8.06
2023-03-04T00:55:13.235Z,8.02
2023-03-04T00:56:15.756Z,8.02
2023-03-04T00:57:19.076Z,8.04
2023-03-04T00:58:21.399Z,8.06
2023-03-04T00:59:24.648Z,8.09
2023-03-04T01:00:26.927Z,8.08
2023-03-04T01:01:30.596Z,7.83
2023-03-04T01:02:33.231Z,7.80
2023-03-04T01:03:36.787Z,7.67
2023-03-04T01:04:39.532Z,7.61
2023-03-04T01:05:42.883Z,7.56
2023-03-04T01:06:46.688Z,7.60
2023-03-04T01:07:50.229Z,7.69
2023-03-04T01:08:52.452Z,7.64
2023-03-04T01:09:55.840Z,7.54
2023-03-04T01:10:58.139Z,7.61
2023-03-04T01:12:01.778Z,7.60
2023-03-04T01:13:04.094Z,7.53
2023-03-04T01:14:07.473Z,7.51
2023-03-04T01:15:10.875Z,7.53
2023-03-04T01:16:14.856Z,7.59
2023-03-04T01:17:17.785Z,7.77
2023-03-04T01:18:24.347Z,7.82
2023-03-04T01:19:28.328Z,7.60
2023-03-04T01:20:32.026Z,7.62
2023-03-04T01:21:36.087Z,7.68
2023-03-04T01:22:42.192Z,7.47
2023-03-04T01:23:47.861Z,7.39
2023-03-04T01:24:50.480Z,7.45
2023-03-04T01:25:54.275Z,7.60
2023-03-04T01:26:56.566Z,7.58
2023-03-04T01:27:59.930Z,7.56
2023-03-04T01:29:02.820Z,7.67
2023-03-04T01:30:07.546Z,7.63
2023-03-04T01:31:09.938Z,7.73
2023-03-04T01:32:13.324Z,7.81
2023-03-04T01:33:15.802Z,7.87
2023-03-04T01:34:19.314Z,7.82
2023-03-04T01:35:21.728Z,7.77
2023-03-04T01:36:25.182Z,7.69
2023-03-04T01:37:27.534Z,7.80
2023-03-04T01:38:32.391Z,7.95
2023-03-04T01:39:34.698Z,7.88
2023-03-04T01:40:39.237Z,7.71
2023-03-04T01:41:41.878Z,7.72
2023-03-04T01:42:46.141Z,7.82
2023-03-04T01:43:48.568Z,7.84
2023-03-04T01:44:53.029Z,7.87
2023-03-04T01:45:58.135Z,7.79
2023-03-04T01:47:01.495Z,7.89
2023-03-04T01:48:03.998Z,7.87
2023-03-04T01:49:08.439Z,7.87
2023-03-04T01:50:17.944Z,7.72
2023-03-04T01:51:22.296Z,7.74
2023-03-04T01:52:26.006Z,7.74
2023-03-04T01:53:31.809Z,7.88
2023-03-04T01:54:34.109Z,7.98
2023-03-04T01:55:37.431Z,8.03
2023-03-04T01:56:40.605Z,8.24
2023-03-04T01:57:44.448Z,8.15
2023-03-04T01:59:07.708Z,8.19
2023-03-04T02:00:29.289Z,8.33
2023-03-04T02:01:31.639Z,8.47
2023-03-04T02:02:35.218Z,8.44
2023-03-04T02:03:38.137Z,8.29
2023-03-04T02:04:43.659Z,8.34
2023-03-04T02:05:48.616Z,8.20
2023-03-04T02:06:52.303Z,8.27
2023-03-04T02:07:56.270Z,8.31
2023-03-04T02:09:00.988Z,8.31
2023-03-04T02:10:04.098Z,8.26
2023-03-04T02:11:07.392Z,8.15
2023-03-04T02:12:09.781Z,8.02
2023-03-04T02:13:13.519Z,8.01
2023-03-04T02:14:16.725Z,8.01
2023-03-04T02:15:20.433Z,8.16
2023-03-04T02:16:22.959Z,8.15
2023-03-04T02:17:27.085Z,8.22
2023-03-04T02:18:29.548Z,8.17
2023-03-04T02:19:43.369Z,8.23
2023-03-04T02:20:55.745Z,8.36
2023-03-04T02:21:58.112Z,8.34
2023-03-04T02:23:10.426Z,8.41
2023-03-04T02:24:19.857Z,8.18
2023-03-04T02:25:27.800Z,8.17
2023-03-04T02:26:32.990Z,8.35
2023-03-04T02:27:36.317Z,8.26
2023-03-04T02:28:38.658Z,8.08
2023-03-04T02:29:41.955Z,7.85
2023-03-04T02:30:45.110Z,7.85
2023-03-04T02:31:50.560Z,7.87
2023-03-04T02:32:53.283Z,7.92
2023-03-04T02:33:58.976Z,8.09
2023-03-04T02:35:01.384Z,8.10
2023-03-04T02:36:04.783Z,8.17
2023-03-04T02:37:07.449Z,8.27
2023-03-04T02:38:11.599Z,7.87
2023-03-04T02:39:25.534Z,7.89
2023-03-04T02:40:32.622Z,7.95
2023-03-04T02:41:37.244Z,7.95
2023-03-04T02:42:40.513Z,8.00
2023-03-04T02:43:44.177Z,7.96
2023-03-04T02:44:50.482Z,8.03
2023-03-04T02:45:52.879Z,8.06
2023-03-04T02:46:56.703Z,8.12
2023-03-04T02:47:59.302Z,8.10
2023-03-04T02:49:02.606Z,8.07
2023-03-04T02:50:05.892Z,8.14
2023-03-04T02:51:09.214Z,8.12
2023-03-04T02:52:14.905Z,8.19
2023-03-04T02:53:19.038Z,8.32
2023-03-04T02:54:23.851Z,8.33
2023-03-04T02:55:27.124Z,8.33
2023-03-04T02:56:29.454Z,8.10
2023-03-04T02:57:34.177Z,8.00
2023-03-04T02:58:36.400Z,8.11
2023-03-04T02:59:41.129Z,8.11
2023-03-04T03:00:43.850Z,8.26
2023-03-04T03:01:47.587Z,8.01
2023-03-04T03:02:50.105Z,8.03
2023-03-04T03:03:53.409Z,8.00
2023-03-04T03:04:55.799Z,8.09
2023-03-04T03:05:59.057Z,7.96
2023-03-04T03:07:01.392Z,7.89
2023-03-04T03:08:04.937Z,7.76
2023-03-04T03:09:07.482Z,7.73
2023-03-04T03:10:11.983Z,7.77
2023-03-04T03:11:14.684Z,7.79
2023-03-04T03:12:18.523Z,7.75
2023-03-04T03:13:22.255Z,7.82
2023-03-04T03:14:25.551Z,7.78
2023-03-04T03:15:27.936Z,7.75
2023-03-04T03:16:31.393Z,7.85
2023-03-04T03:17:33.921Z,7.84
2023-03-04T03:18:37.268Z,7.87
2023-03-04T03:19:40.400Z,7.90
2023-03-04T03:20:44.712Z,7.82
2023-03-04T03:21:47.166Z,7.69
2023-03-04T03:22:50.816Z,7.72
2023-03-04T03:23:53.400Z,7.77
2023-03-04T03:24:56.788Z,7.78
2023-03-04T03:25:59.111Z,7.75
2023-03-04T03:27:02.447Z,7.64
2023-03-04T03:28:04.943Z,7.56
2023-03-04T03:29:09.662Z,7.51
2023-03-04T03:30:14.897Z,7.27
2023-03-04T03:31:18.754Z,7.16
2023-03-04T03:32:20.942Z,7.27
2023-03-04T03:33:24.669Z,7.40
2023-03-04T03:34:27.521Z,7.40
2023-03-04T03:35:30.865Z,7.50
2023-03-04T03:36:33.230Z,7.54
2023-03-04T03:37:36.569Z,7.52
2023-03-04T03:38:39.036Z,7.44
2023-03-04T03:39:42.283Z,7.56
2023-03-04T03:40:45.222Z,7.66
2023-03-04T03:41:48.744Z,7.74
2023-03-04T03:42:50.988Z,7.84
2023-03-04T03:43:54.389Z,7.56
2023-03-04T03:44:58.000Z,7.60
2023-03-04T03:46:01.322Z,7.57
2023-03-04T03:47:03.724Z,7.33
2023-03-04T03:48:07.530Z,7.34
2023-03-04T03:49:09.770Z,7.32
2023-03-04T03:50:13.774Z,7.34
2023-03-04T03:51:16.101Z,7.22
2023-03-04T03:52:19.429Z,7.08
2023-03-04T03:53:22.749Z,7.15
2023-03-04T03:54:25.377Z,7.25
2023-03-04T03:55:28.879Z,7.16
2023-03-04T03:56:31.381Z,7.16
2023-03-04T03:57:34.744Z,7.15
2023-03-04T03:58:37.216Z,6.98
2023-03-04T03:59:40.605Z,6.86
2023-03-04T04:00:44.381Z,6.97
2023-03-04T04:01:47.687Z,6.84
2023-03-04T04:02:50.254Z,6.86
2023-03-04T04:03:54.260Z,7.09
2023-03-04T04:04:57.724Z,7.10
2023-03-04T04:05:59.989Z,6.98
2023-03-04T04:07:03.426Z,6.92
2023-03-04T04:08:06.105Z,6.96
2023-03-04T04:09:09.492Z,6.69
2023-03-04T04:10:12.127Z,6.59
2023-03-04T04:11:15.596Z,6.60
2023-03-04T04:12:19.423Z,6.60
2023-03-04T04:13:22.721Z,6.73
2023-03-04T04:14:25.597Z,6.79
2023-03-04T04:15:29.528Z,6.96
2023-03-04T04:16:33.584Z,6.91
2023-03-04T04:17:37.548Z,6.82
2023-03-04T04:18:40.427Z,6.55
2023-03-04T04:19:43.858Z,6.54
2023-03-04T04:20:47.274Z,6.59
2023-03-04T04:21:50.778Z,6.53
2023-03-04T04:22:53.312Z,6.41
2023-03-04T04:23:57.088Z,6.51
2023-03-04T04:24:59.494Z,6.44
2023-03-04T04:26:02.919Z,6.42
2023-03-04T04:27:05.248Z,6.44
2023-03-04T04:28:08.413Z,6.29
2023-03-04T04:29:14.348Z,6.46
2023-03-04T04:30:17.645Z,6.45
2023-03-04T04:31:19.983Z,6.61
2023-03-04T04:32:25.014Z,6.41
2023-03-04T04:33:27.488Z,6.47
2023-03-04T04:34:31.309Z,6.49
2023-03-04T04:35:35.566Z,6.44
2023-03-04T04:36:38.899Z,6.55
2023-03-04T04:37:41.155Z,6.46
2023-03-04T04:38:45.282Z,6.51
2023-03-04T04:39:47.522Z,6.39
2023-03-04T04:40:50.921Z,6.38
2023-03-04T04:41:53.226Z,6.41
2023-03-04T04:42:56.973Z,6.60
2023-03-04T04:43:59.216Z,6.74
2023-03-04T04:45:02.480Z,6.79
2023-03-04T04:46:05.081Z,6.82
2023-03-04T04:47:08.557Z,6.65
2023-03-04T04:48:12.259Z,6.66
2023-03-04T04:49:15.704Z,6.81
2023-03-04T04:50:18.091Z,6.67
2023-03-04T04:51:21.372Z,6.49
2023-03-04T04:52:23.636Z,6.33
2023-03-04T04:53:26.998Z,6.29
2023-03-04T04:54:29.479Z,6.16
2023-03-04T04:55:33.520Z,6.21
2023-03-04T04:56:35.748Z,6.16
2023-03-04T04:57:39.494Z,6.37
2023-03-04T04:58:42.001Z,6.27
2023-03-04T04:59:45.409Z,6.19
2023-03-04T05:00:47.783Z,6.04
2023-03-04T05:01:51.027Z,6.19
2023-03-04T05:02:53.359Z,6.13
2023-03-04T05:03:58.390Z,6.22
2023-03-04T05:05:00.882Z,6.32
2023-03-04T05:06:05.445Z,6.20
2023-03-04T05:07:07.995Z,6.24
2023-03-04T05:08:11.358Z,6.44
2023-03-04T05:09:14.071Z,6.51
2023-03-04T05:10:17.615Z,6.52
2023-03-04T05:11:20.582Z,6.46
2023-03-04T05:12:23.969Z,6.35
2023-03-04T05:13:26.334Z,6.21
2023-03-04T05:14:29.647Z,6.36
2023-03-04T05:15:31.960Z,6.27
2023-03-04T05:16:35.323Z,6.45
2023-03-04T05:17:37.672Z,6.31
2023-03-04T05:18:40.963Z,6.57
2023-03-04T05:19:44.848Z,6.58
2023-03-04T05:20:52.872Z,6.46
2023-03-04T05:21:55.054Z,6.49
2023-03-04T05:22:58.384Z,6.31
2023-03-04T05:24:00.608Z,6.24
2023-03-04T05:25:04.109Z,6.55
2023-03-04T05:26:07.364Z,6.38
2023-03-04T05:27:10.634Z,6.45
2023-03-04T05:28:13.216Z,6.43
2023-03-04T05:29:16.510Z,6.44
2023-03-04T05:30:19.101Z,6.33
2023-03-04T05:31:22.416Z,6.24
2023-03-04T05:32:24.688Z,6.08
2023-03-04T05:33:28.591Z,6.11
2023-03-04T05:34:31.055Z,6.21
2023-03-04T05:35:35.876Z,6.29
2023-03-04T05:36:38.853Z,6.26
2023-03-04T05:37:42.086Z,6.17
2023-03-04T05:38:44.358Z,6.19
2023-03-04T05:39:47.810Z,6.29
2023-03-04T05:40:50.574Z,6.25
2023-03-04T05:41:53.856Z,6.33
2023-03-04T05:42:57.418Z,6.56
2023-03-04T05:44:00.945Z,6.56
2023-03-04T05:45:03.651Z,6.31
2023-03-04T05:46:07.203Z,6.30
2023-03-04T05:47:09.504Z,6.26
2023-03-04T05:48:12.852Z,6.32
2023-03-04T05:49:15.168Z,6.34
2023-03-04T05:50:18.987Z,6.29
2023-03-04T05:51:23.668Z,6.26
2023-03-04T05:52:27.216Z,6.32
2023-03-04T05:53:29.923Z,6.40
2023-03-04T05:54:33.595Z,6.14
2023-03-04T05:55:35.831Z,6.17
2023-03-04T05:56:39.457Z,6.26
2023-03-04T05:57:41.782Z,6.20
2023-03-04T05:58:47.628Z,6.20
2023-03-04T05:59:49.999Z,6.21
2023-03-04T06:00:53.371Z,6.31
2023-03-04T06:01:55.689Z,6.39
2023-03-04T06:02:59.010Z,6.42
2023-03-04T06:04:01.203Z,6.14
2023-03-04T06:05:05.057Z,5.98
2023-03-04T06:06:07.750Z,6.15
2023-03-04T06:07:12.716Z,6.13
2023-03-04T06:08:15.066Z,6.40
2023-03-04T06:09:21.130Z,6.27
2023-03-04T06:10:23.421Z,6.13
2023-03-04T06:11:26.744Z,6.21
2023-03-04T06:12:28.961Z,6.24
2023-03-04T06:13:32.244Z,6.28
2023-03-04T06:14:34.523Z,6.24
2023-03-04T06:15:38.467Z,6.30
2023-03-04T06:16:40.743Z,6.20
2023-03-04T06:17:44.282Z,6.02
2023-03-04T06:18:46.701Z,5.93
2023-03-04T06:19:50.195Z,6.00
2023-03-04T06:20:57.887Z,5.98
2023-03-04T06:22:00.219Z,6.00
2023-03-04T06:23:05.503Z,6.12
2023-03-04T06:24:09.026Z,6.12
2023-03-04T06:25:11.348Z,6.11
2023-03-04T06:26:15.761Z,6.26
2023-03-04T06:27:18.064Z,6.22
2023-03-04T06:28:21.496Z,6.31
2023-03-04T06:29:24.063Z,6.25
2023-03-04T06:30:27.535Z,6.32
2023-03-04T06:31:29.908Z,6.26
2023-03-04T06:32:33.269Z,6.36
2023-03-04T06:33:35.655Z,6.36
2023-03-04T06:34:39.003Z,6.12
2023-03-04T06:35:41.303Z,6.06
2023-03-04T06:36:44.734Z,6.14
2023-03-04T06:37:47.132Z,6.10
2023-03-04T06:38:51.875Z,6.12
2023-03-04T06:39:55.022Z,6.14
2023-03-04T06:40:58.282Z,6.17
2023-03-04T06:42:00.680Z,6.16
2023-03-04T06:43:04.587Z,6.24
2023-03-04T06:44:07.549Z,6.35
2023-03-04T06:45:12.070Z,6.35
2023-03-04T06:46:14.490Z,6.26
2023-03-04T06:47:18.933Z,6.18
2023-03-04T06:48:21.276Z,6.29
2023-03-04T06:49:24.624Z,6.35
2023-03-04T06:50:26.927Z,6.42
2023-03-04T06:51:30.629Z,6.54
2023-03-04T06:52:33.082Z,6.71
2023-03-04T06:53:36.403Z,6.73
2023-03-04T06:54:40.069Z,6.80
2023-03-04T06:55:43.388Z,6.91
2023-03-04T06:56:45.744Z,6.76
2023-03-04T06:57:49.045Z,6.81
2023-03-04T06:58:51.752Z,6.76
2023-03-04T06:59:55.151Z,6.83
2023-03-04T07:00:57.735Z,6.80
2023-03-04T07:02:01.173Z,6.79
2023-03-04T07:03:03.473Z,6.83
2023-03-04T07:04:07.057Z,6.81
2023-03-04T07:05:10.021Z,6.83
2023-03-04T07:06:14.553Z,6.81
2023-03-04T07:07:17.140Z,6.78
2023-03-04T07:08:22.033Z,6.76
2023-03-04T07:09:25.955Z,6.79
2023-03-04T07:10:29.752Z,6.84
2023-03-04T07:11:33.182Z,6.83
2023-03-04T07:12:35.522Z,7.00
2023-03-04T07:13:39.395Z,6.97
2023-03-04T07:14:42.701Z,6.94
2023-03-04T07:15:45.059Z,7.02
2023-03-04T07:16:48.492Z,7.09
2023-03-04T07:17:50.965Z,7.14
2023-03-04T07:18:54.690Z,7.35
2023-03-04T07:19:57.058Z,7.59
2023-03-04T07:21:00.511Z,7.67
2023-03-04T07:22:02.768Z,7.52
2023-03-04T07:23:06.200Z,7.58
2023-03-04T07:24:09.611Z,7.60
2023-03-04T07:25:12.094Z,7.83
2023-03-04T07:26:16.976Z,8.07
2023-03-04T07:27:20.491Z,8.23
2023-03-04T07:28:23.003Z,8.21
2023-03-04T07:29:26.434Z,8.21
2023-03-04T07:30:28.919Z,8.21
2023-03-04T07:31:34.565Z,8.33
2023-03-04T07:32:37.453Z,8.42
2023-03-04T07:33:40.933Z,8.50
2023-03-04T07:34:44.341Z,8.61
2023-03-04T07:35:46.719Z,8.69
2023-03-04T07:36:50.279Z,8.69
2023-03-04T07:37:52.563Z,8.72
2023-03-04T07:38:56.096Z,8.68
2023-03-04T07:39:58.529Z,8.71
2023-03-04T07:41:02.254Z,8.91
2023-03-04T07:42:07.152Z,9.05
2023-03-04T07:43:12.819Z,9.15
2023-03-04T07:44:16.153Z,9.35
2023-03-04T07:45:18.731Z,9.46
2023-03-04T07:46:22.163Z,9.63
2023-03-04T07:47:24.549Z,9.98
2023-03-04T07:48:28.150Z,10.30
2023-03-04T07:49:30.484Z,10.78
2023-03-04T07:50:33.821Z,10.98
2023-03-04T07:51:36.184Z,11.34
2023-03-04T07:52:40.164Z,11.88
2023-03-04T07:53:44.162Z,11.69
2023-03-04T07:54:47.446Z,12.15
2023-03-04T07:55:49.816Z,12.61
2023-03-04T07:56:53.920Z,12.87
2023-03-04T07:57:57.841Z,13.37
2023-03-04T07:59:01.627Z,13.56
2023-03-04T08:00:04.314Z,13.75
2023-03-04T08:01:12.207Z,14.07
2023-03-04T08:02:15.735Z,14.39
2023-03-04T08:03:18.061Z,14.55
2023-03-04T08:04:21.481Z,14.54
2023-03-04T08:05:23.762Z,15.02
2023-03-04T08:06:28.032Z,15.21
2023-03-04T08:07:30.536Z,14.95
2023-03-04T08:08:34.166Z,15.43
2023-03-04T08:09:36.460Z,15.24
2023-03-04T08:10:40.024Z,15.73
2023-03-04T08:11:43.891Z,16.29
2023-03-04T08:12:47.143Z,16.34
2023-03-04T08:13:51.040Z,16.35
2023-03-04T08:14:54.358Z,16.28
2023-03-04T08:15:56.930Z,16.07
2023-03-04T08:17:00.237Z,15.85
2023-03-04T08:18:02.453Z,16.04
2023-03-04T08:19:06.441Z,15.98
2023-03-04T08:20:10.122Z,16.07
2023-03-04T08:21:14.178Z,16.19
2023-03-04T08:22:17.086Z,15.83
2023-03-04T08:23:20.846Z,15.88
2023-03-04T08:24:24.444Z,16.06
2023-03-04T08:25:27.105Z,16.03
2023-03-04T08:26:34.571Z,16.04
2023-03-04T08:27:37.499Z,15.38
2023-03-04T08:28:41.506Z,15.55
2023-03-04T08:29:45.205Z,15.50
2023-03-04T08:30:54.429Z,15.47
2023-03-04T08:31:58.080Z,14.98
2023-03-04T08:33:01.552Z,15.80
2023-03-04T08:34:05.035Z,16.52
2023-03-04T08:35:07.430Z,16.89
2023-03-04T08:36:11.336Z,16.92
2023-03-04T08:37:13.612Z,16.78
2023-03-04T08:38:16.911Z,17.04
2023-03-04T08:39:20.753Z,17.32
2023-03-04T08:40:26.479Z,17.53
2023-03-04T08:41:29.536Z,17.80
2023-03-04T08:42:33.060Z,17.89
2023-03-04T08:43:35.385Z,17.69
2023-03-04T08:44:38.748Z,17.90
2023-03-04T08:45:42.620Z,17.12
2023-03-04T08:46:46.719Z,17.42
2023-03-04T08:47:50.984Z,17.50
2023-03-04T08:48:54.259Z,18.29
2023-03-04T08:49:58.653Z,18.56
2023-03-04T08:51:02.367Z,18.38
2023-03-04T08:52:05.284Z,18.93
2023-03-04T08:53:08.589Z,19.34
2023-03-04T08:54:10.951Z,19.75
2023-03-04T08:55:14.331Z,20.11
2023-03-04T08:56:17.826Z,20.09
2023-03-04T08:57:20.105Z,20.02
2023-03-04T08:58:23.507Z,19.62
2023-03-04T08:59:25.826Z,19.76
2023-03-04T09:00:29.161Z,20.48
2023-03-04T09:01:33.048Z,20.11
2023-03-04T09:02:36.482Z,20.14
2023-03-04T09:03:39.332Z,19.59
2023-03-04T09:04:42.868Z,20.25
2023-03-04T09:05:46.171Z,20.75
2023-03-04T09:06:49.555Z,19.56
2023-03-04T09:07:51.914Z,18.47
2023-03-04T09:08:55.249Z,18.69
2023-03-04T09:09:57.423Z,18.71
2023-03-04T09:11:01.069Z,18.49
2023-03-04T09:12:04.679Z,18.21
2023-03-04T09:13:07.373Z,18.33
2023-03-04T09:14:11.091Z,17.80
2023-03-04T09:15:13.740Z,17.70
2023-03-04T09:16:17.187Z,18.15
2023-03-04T09:17:20.898Z,18.34
2023-03-04T09:18:25.835Z,18.76
2023-03-04T09:19:28.153Z,18.74
2023-03-04T09:20:31.842Z,18.15
2023-03-04T09:21:35.105Z,18.98
2023-03-04T09:22:38.068Z,19.08
2023-03-04T09:23:41.526Z,18.58
2023-03-04T09:24:43.776Z,18.20
2023-03-04T09:25:49.364Z,18.16
2023-03-04T09:26:52.139Z,18.21
2023-03-04T09:27:55.746Z,17.65
2023-03-04T09:28:59.499Z,17.66
2023-03-04T09:30:02.793Z,17.25
2023-03-04T09:31:11.999Z,17.43
2023-03-04T09:32:15.481Z,18.17
2023-03-04T09:33:19.520Z,18.21
2023-03-04T09:34:23.276Z,18.88
2023-03-04T09:35:25.912Z,18.27
2023-03-04T09:36:29.427Z,18.10
2023-03-04T09:37:31.831Z,18.28
2023-03-04T09:38:35.164Z,18.55
2023-03-04T09:39:38.451Z,18.00
2023-03-04T09:40:43.336Z,18.59
2023-03-04T09:41:50.157Z,18.92
2023-03-04T09:42:56.310Z,19.18
2023-03-04T09:43:59.879Z,19.19
2023-03-04T09:45:04.667Z,19.01
2023-03-04T09:46:12.915Z,17.68
2023-03-04T09:47:19.389Z,18.19
2023-03-04T09:48:29.151Z,18.49
2023-03-04T09:49:32.868Z,18.25
2023-03-04T09:50:41.822Z,18.68
2023-03-04T09:51:56.812Z,17.98
2023-03-04T09:53:08.930Z,18.72
2023-03-04T09:54:18.593Z,19.11
2023-03-04T09:55:26.931Z,19.54
2023-03-04T09:56:30.078Z,19.64
2023-03-04T09:57:46.058Z,19.20
2023-03-04T09:59:00.803Z,19.20
2023-03-04T10:00:19.840Z,18.91
2023-03-04T10:01:27.734Z,19.06
2023-03-04T10:02:41.444Z,19.74
2023-03-04T10:03:50.356Z,19.80
2023-03-04T10:04:55.719Z,19.12
2023-03-04T10:06:03.629Z,18.57
2023-03-04T10:07:13.611Z,19.09
2023-03-04T10:08:33.431Z,19.95
2023-03-04T10:09:47.521Z,19.08
2023-03-04T10:10:53.210Z,18.59
2023-03-04T10:12:04.217Z,18.69
2023-03-04T10:13:11.944Z,19.03
2023-03-04T10:14:33.681Z,18.78
2023-03-04T10:15:41.937Z,18.32
2023-03-04T10:16:49.371Z,18.21
2023-03-04T10:17:58.517Z,18.12
2023-03-04T10:19:21.369Z,18.64
2023-03-04T10:20:27.336Z,18.97
2023-03-04T10:21:35.322Z,18.97
2023-03-04T10:22:43.841Z,18.79
2023-03-04T10:23:46.274Z,18.79
2023-03-04T10:24:50.219Z,18.58
2023-03-04T10:25:54.916Z,19.10
2023-03-04T10:27:04.950Z,18.92
2023-03-04T10:28:16.428Z,19.39
2023-03-04T10:29:22.123Z,19.49
2023-03-04T10:30:40.147Z,19.22
2023-03-04T10:31:43.967Z,18.85
2023-03-04T10:32:48.395Z,18.64
2023-03-04T10:33:50.680Z,18.74
2023-03-04T10:34:55.750Z,18.52
2023-03-04T10:36:02.798Z,18.14
2023-03-04T10:37:09.865Z,18.26
2023-03-04T10:38:13.891Z,18.34
2023-03-04T10:39:22.865Z,19.06
2023-03-04T10:40:27.492Z,19.41
2023-03-04T10:41:32.015Z,19.87
2023-03-04T10:42:38.001Z,20.78
2023-03-04T10:43:40.602Z,19.77
2023-03-04T10:44:52.308Z,20.34
2023-03-04T10:45:57.142Z,20.22
2023-03-04T10:47:00.636Z,20.75
2023-03-04T10:48:03.632Z,21.09
2023-03-04T10:49:07.389Z,20.29
2023-03-04T10:50:24.631Z,19.38
2023-03-04T10:51:28.688Z,19.16
2023-03-04T10:52:33.725Z,19.96
2023-03-04T10:53:41.627Z,19.85
2023-03-04T10:54:49.956Z,19.60
2023-03-04T10:55:52.319Z,19.53
2023-03-04T10:57:00.262Z,20.14
2023-03-04T10:58:05.471Z,19.34
2023-03-04T10:59:36.549Z,18.76
2023-03-04T11:00:40.278Z,20.09
2023-03-04T11:01:42.985Z,19.63
2023-03-04T11:02:47.702Z,19.27
2023-03-04T11:03:50.252Z,19.30
2023-03-04T11:04:57.033Z,20.24
2023-03-04T11:06:10.989Z,20.62
2023-03-04T11:07:16.890Z,18.76
2023-03-04T11:08:21.440Z,19.63
2023-03-04T11:09:27.053Z,19.44
2023-03-04T11:10:39.695Z,19.27
2023-03-04T11:11:44.875Z,18.86
2023-03-04T11:12:53.473Z,18.75
2023-03-04T11:14:00.474Z,19.25
2023-03-04T11:15:05.874Z,19.05
2023-03-04T11:16:27.012Z,18.90
2023-03-04T11:17:40.752Z,19.25
2023-03-04T11:18:48.649Z,20.04
2023-03-04T11:19:57.802Z,19.80
2023-03-04T11:21:02.088Z,19.09
2023-03-04T11:22:06.605Z,19.08
2023-03-04T11:23:15.562Z,19.08
2023-03-04T11:24:29.126Z,18.98
2023-03-04T11:25:36.153Z,18.69
2023-03-04T11:26:42.232Z,18.42
2023-03-04T11:27:49.232Z,18.41
2023-03-04T11:28:56.297Z,19.27
2023-03-04T11:30:05.242Z,19.82
2023-03-04T11:31:14.443Z,19.56
2023-03-04T11:32:22.886Z,19.02
2023-03-04T11:33:33.781Z,19.58
2023-03-04T11:34:43.509Z,19.61
2023-03-04T11:35:58.507Z,19.13
2023-03-04T11:37:07.388Z,19.29
2023-03-04T11:38:18.335Z,19.49
2023-03-04T11:39:26.181Z,19.58
2023-03-04T11:40:36.093Z,19.81
2023-03-04T11:41:43.821Z,19.97
2023-03-04T11:42:51.857Z,18.89
2023-03-04T11:43:55.346Z,18.45
2023-03-04T11:44:57.812Z,18.39
2023-03-04T11:46:38.208Z,17.97
2023-03-04T11:47:57.744Z,17.32
2023-03-04T11:49:24.052Z,17.91
2023-03-04T11:50:36.842Z,17.78
2023-03-04T11:51:46.310Z,17.90
2023-03-04T11:53:12.576Z,17.62
2023-03-04T11:54:26.097Z,18.38
2023-03-04T11:55:39.268Z,18.56
2023-03-04T11:56:44.838Z,19.25
2023-03-04T11:57:57.359Z,19.95
2023-03-04T11:59:31.201Z,19.45
2023-03-04T12:00:41.296Z,19.74
2023-03-04T12:01:55.597Z,19.29
2023-03-04T12:03:17.609Z,18.25
2023-03-04T12:04:45.689Z,18.64
2023-03-04T12:06:00.398Z,18.89
2023-03-04T12:07:35.198Z,18.67
2023-03-04T12:08:52.912Z,18.94
2023-03-04T12:10:06.705Z,18.36
2023-03-04T12:11:17.312Z,18.04
2023-03-04T12:12:36.015Z,18.57
2023-03-04T12:14:02.769Z,18.17
2023-03-04T12:15:14.950Z,18.26
2023-03-04T12:16:32.124Z,17.96
2023-03-04T12:18:08.856Z,17.73
2023-03-04T12:19:28.098Z,17.86
2023-03-04T12:20:43.322Z,18.04
2023-03-04T12:22:06.512Z,18.03
2023-03-04T12:23:26.190Z,18.31
2023-03-04T12:24:41.393Z,19.02
2023-03-04T12:25:56.073Z,18.32
2023-03-04T12:27:05.539Z,17.57
2023-03-04T12:28:43.686Z,18.33
2023-03-04T12:29:56.609Z,17.96
2023-03-04T12:31:19.750Z,18.02
2023-03-04T12:32:31.720Z,18.30
2023-03-04T12:33:43.441Z,18.29
2023-03-04T12:35:06.898Z,18.14
2023-03-04T12:36:20.458Z,18.13
2023-03-04T12:37:42.709Z,17.98
2023-03-04T12:39:00.542Z,18.09
2023-03-04T12:40:22.293Z,18.18
2023-03-04T12:41:36.285Z,18.90
2023-03-04T12:42:47.071Z,18.72
2023-03-04T12:43:58.306Z,19.37
2023-03-04T12:45:08.705Z,19.37
2023-03-04T12:46:36.167Z,18.96
2023-03-04T12:47:50.135Z,19.09
2023-03-04T12:49:12.963Z,19.40
2023-03-04T12:50:29.322Z,19.63
2023-03-04T12:51:40.803Z,19.91
2023-03-04T12:52:51.747Z,20.40
2023-03-04T12:54:04.895Z,20.37
2023-03-04T12:55:13.860Z,19.92
2023-03-04T12:56:25.344Z,19.74
2023-03-04T12:57:31.883Z,20.33
2023-03-04T12:58:37.161Z,20.42
2023-03-04T12:59:47.800Z,20.87
2023-03-04T13:01:02.400Z,20.53
2023-03-04T13:02:23.740Z,20.24
2023-03-04T13:03:38.541Z,19.74
2023-03-04T13:04:52.578Z,20.05
2023-03-04T13:06:13.662Z,19.77
2023-03-04T13:07:22.200Z,20.24
2023-03-04T13:08:36.827Z,20.15
2023-03-04T13:09:48.219Z,19.09
2023-03-04T13:10:51.235Z,18.95
2023-03-04T13:12:04.094Z,18.78
2023-03-04T13:13:41.838Z,17.36
2023-03-04T13:15:17.927Z,16.94
2023-03-04T13:16:33.929Z,16.76
2023-03-04T13:17:43.876Z,16.40
2023-03-04T13:18:47.615Z,16.09
2023-03-04T13:19:53.027Z,16.16
2023-03-04T13:21:27.622Z,16.39
2023-03-04T13:22:58.102Z,16.46
2023-03-04T13:24:24.162Z,16.42
2023-03-04T13:25:37.505Z,16.21
2023-03-04T13:26:41.347Z,16.27
2023-03-04T13:27:49.284Z,16.41
2023-03-04T13:29:31.674Z,16.10
2023-03-04T13:31:14.258Z,16.51
2023-03-04T13:32:37.891Z,16.38
2023-03-04T13:33:52.373Z,16.38
2023-03-04T13:34:55.859Z,16.44
2023-03-04T13:36:02.179Z,15.98
2023-03-04T13:37:29.418Z,16.08
2023-03-04T13:38:35.057Z,16.36
2023-03-04T13:39:38.329Z,16.47
2023-03-04T13:40:40.684Z,16.30
2023-03-04T13:41:49.391Z,16.36
2023-03-04T13:42:52.716Z,16.32
2023-03-04T13:43:57.464Z,16.29
2023-03-04T13:45:04.845Z,16.38
2023-03-04T13:46:30.294Z,16.19
2023-03-04T13:47:48.862Z,16.03
2023-03-04T13:49:03.029Z,16.05
2023-03-04T13:50:29.964Z,16.17
2023-03-04T13:51:37.090Z,15.65
2023-03-04T13:52:42.508Z,15.43
2023-03-04T13:53:50.210Z,15.21
2023-03-04T13:55:12.484Z,15.26
2023-03-04T13:56:40.101Z,15.43
2023-03-04T13:57:49.848Z,15.38
2023-03-04T13:59:02.738Z,15.84
2023-03-04T14:00:14.674Z,15.38
2023-03-04T14:01:29.005Z,15.55
2023-03-04T14:02:35.893Z,15.83
2023-03-04T14:03:38.302Z,16.12
2023-03-04T14:04:43.817Z,16.12
2023-03-04T14:05:46.036Z,16.60
2023-03-04T14:06:50.312Z,16.44
2023-03-04T14:07:52.555Z,16.55
2023-03-04T14:08:57.529Z,16.63
2023-03-04T14:10:01.952Z,16.13
2023-03-04T14:11:05.988Z,16.20
2023-03-04T14:12:17.773Z,15.96
2023-03-04T14:13:20.057Z,15.66
2023-03-04T14:14:27.965Z,15.60
2023-03-04T14:15:33.548Z,15.62
2023-03-04T14:16:40.869Z,15.70
2023-03-04T14:17:49.139Z,16.03
2023-03-04T14:19:03.082Z,15.89
2023-03-04T14:20:22.477Z,16.00
2023-03-04T14:21:24.809Z,16.03
2023-03-04T14:22:31.350Z,16.23
2023-03-04T14:23:36.124Z,15.97
2023-03-04T14:24:39.508Z,15.81
2023-03-04T14:25:41.825Z,15.63